マニラ/ニノイ・アキノ の空港の天気 - METARとTAF

ニノイ・アキノ国際空港 ( RPLL / MNL ) - フィリピン マニラ
飛行場実況気象(Metar)
観測時間12/14 14:00 PHT (12/14 06:00 UTC)
風向・風速東南東 4m/s
視程10km以上
天気現象弱い雨
全天の4割程度の雲 雲底高度 700m
全天を覆う雲 雲底高度 2740m
気温26℃
湿度100%
気圧1013hPa
METARRPLL 140600Z 11008KT 9999 -RA SCT023 OVC090 26/26 Q1013 NOSIG RMK A2991
過去の天気等 Google飛行場航空写真 Wunderground天気予報

過去48時間のMETAR

飛行場予報(TAF)
発表時間: 12/14 13:00 PHT (12/14 05:00 UTC)
予報対象時間: 14日14時 PHT ~ 15日20時 PHT
風向・風速東 4m/s
視程10km以上
少しの雲 雲底高度 700m
全天の8割程度の雲 雲底高度 3050m
14日14時 PHT ~ 14日20時 PHT に一時的に
風向・風速東南東 6m/s 瞬間風速 11m/s
視程9000m
天気現象弱いしゅう雨
全天の4割程度の雲 雲底高度 700m
全天を覆う雲 雲底高度 2740m
14日20時 PHT ~ 15日2時 PHT に一時的に
風向・風速北東 7m/s
視程9000m
天気現象弱いしゅう雨
全天の4割程度の雲 雲底高度 700m
全天の8割程度の雲 雲底高度 2740m
TAF RPLL 140500Z 1406/1512 08007KT 9999 FEW023 BKN100 TX29/1406Z TN24/1422Z
TEMPO 1406/1412 12012G22KT 9000 -SHRA SCT023 OVC090
TEMPO 1412/1418 04014KT 9000 -SHRA SCT023 BKN090